Time;durP1;ratioP1;P1;durP2;ratioP2;P2;SDS_P1;SDS_P2;PMS_P1;PMS_P2;Temp;Humidity;BMP_temperature;BMP_pressure;BME280_temperature;BME280_humidity;BME280_pressure;Samples;Min_cycle;Max_cycle;Signal;HPM_P1;HPM_P2
2021/07/12 00:00:45;;;;;;;6.23;5.00;;;;;;;15.15;100.00;99006.81;10538862;28;20182;-83
2021/07/12 00:06:04;;;;;;;5.87;5.37;;;;;;;15.11;100.00;98999.81;10522741;28;20169;-83
2021/07/12 00:11:23;;;;;;;12.90;6.17;;;;;;;15.08;100.00;99002.66;10540263;28;20692;-82
2021/07/12 00:16:42;;;;;;;6.27;5.67;;;;;;;15.03;100.00;98997.59;10532536;28;20174;-81
2021/07/12 00:22:01;;;;;;;12.27;6.20;;;;;;;15.19;100.00;98993.66;10530912;28;20256;-83
2021/07/12 00:27:19;;;;;;;7.70;6.93;;;;;;;15.16;100.00;98988.19;10546952;28;20209;-83
2021/07/12 00:32:39;;;;;;;7.17;6.27;;;;;;;15.05;100.00;98984.91;10546714;28;20210;-82
2021/07/12 00:37:58;;;;;;;8.17;6.60;;;;;;;15.05;100.00;98984.09;10545152;28;20664;-80
2021/07/12 00:43:17;;;;;;;11.63;7.57;;;;;;;15.06;100.00;98974.59;10531400;28;20174;-79
2021/07/12 00:48:37;;;;;;;17.60;8.83;;;;;;;15.09;100.00;98982.06;10531032;28;20170;-80
2021/07/12 00:53:56;;;;;;;20.87;8.93;;;;;;;15.15;100.00;98973.56;10544724;28;20209;-80
2021/07/12 00:59:15;;;;;;;19.23;7.27;;;;;;;15.23;100.00;98979.69;10545511;28;20213;-79
2021/07/12 01:04:36;;;;;;;43.10;9.90;;;;;;;15.24;100.00;98979.31;10544197;28;20189;-80
2021/07/12 01:09:56;;;;;;;35.20;8.40;;;;;;;15.28;100.00;98977.22;10545548;28;20173;-79
2021/07/12 01:15:16;;;;;;;44.13;9.30;;;;;;;15.21;100.00;98971.84;10529765;28;20206;-79
2021/07/12 01:21:16;;;;;;;10.90;7.80;;;;;;;15.02;100.00;98968.38;10528626;28;20182;-80
2021/07/12 01:27:12;;;;;;;60.97;10.40;;;;;;;15.12;100.00;98972.84;10543229;28;20187;-79
2021/07/12 01:32:57;;;;;;;63.10;8.67;;;;;;;15.02;100.00;98954.50;10544511;28;20198;-79
2021/07/12 01:38:32;;;;;;;24.40;7.90;;;;;;;15.02;100.00;98951.75;10516761;28;20255;-79
2021/07/12 01:44:07;;;;;;;9.13;8.33;;;;;;;15.11;100.00;98949.13;10544590;28;20166;-80
2021/07/12 01:49:57;;;;;;;29.23;9.07;;;;;;;15.19;100.00;98938.22;10527423;28;20178;-79
2021/07/12 01:55:47;;;;;;;8.60;7.63;;;;;;;15.24;100.00;98934.19;10528038;28;20210;-79
2021/07/12 02:01:10;;;;;;;12.03;8.00;;;;;;;15.21;100.00;98927.50;10541133;28;20190;-80
2021/07/12 02:06:34;;;;;;;10.27;8.90;;;;;;;15.20;100.00;98917.63;10526735;28;20186;-79
2021/07/12 02:11:57;;;;;;;20.50;8.13;;;;;;;15.18;100.00;98905.41;10543205;28;20205;-80
2021/07/12 02:17:18;;;;;;;12.77;7.80;;;;;;;15.11;100.00;98910.34;10543048;28;20253;-80
2021/07/12 02:22:39;;;;;;;7.23;6.63;;;;;;;15.04;100.00;98903.00;10525884;28;20174;-80
2021/07/12 02:27:59;;;;;;;8.43;7.73;;;;;;;14.98;100.00;98901.16;10526851;28;20182;-80
2021/07/12 02:33:21;;;;;;;9.27;6.83;;;;;;;14.92;100.00;98886.28;10526166;28;20210;-80
2021/07/12 02:38:41;;;;;;;18.30;7.70;;;;;;;14.74;100.00;98885.94;10540884;28;20186;-81
2021/07/12 02:44:01;;;;;;;7.30;5.70;;;;;;;14.60;100.00;98897.34;10526519;28;20178;-80
2021/07/12 02:49:20;;;;;;;8.83;5.63;;;;;;;14.55;100.00;98884.78;10541699;28;20178;-80
2021/07/12 02:54:45;;;;;;;7.83;5.77;;;;;;;14.45;100.00;98887.78;10540930;28;20214;-80
2021/07/12 03:00:07;;;;;;;5.10;4.43;;;;;;;14.34;100.00;98890.00;10540905;28;20209;-80
2021/07/12 03:05:26;;;;;;;4.93;4.63;;;;;;;14.31;100.00;98893.63;10524519;28;20185;-80
2021/07/12 03:10:57;;;;;;;4.90;4.50;;;;;;;14.25;100.00;98886.28;10525511;28;20201;-80
2021/07/12 03:16:17;;;;;;;4.80;4.40;;;;;;;14.17;100.00;98877.34;10525368;28;20178;-80
2021/07/12 03:21:41;;;;;;;4.77;4.23;;;;;;;14.14;100.00;98875.41;10523837;28;20186;-80
2021/07/12 03:27:03;;;;;;;12.27;6.07;;;;;;;14.25;100.00;98886.28;10524476;28;20186;-80
2021/07/12 03:32:25;;;;;;;6.20;5.57;;;;;;;14.24;100.00;98877.19;10524451;28;20218;-80
2021/07/12 03:37:44;;;;;;;8.97;6.10;;;;;;;14.27;100.00;98883.84;10538138;28;20226;-80
2021/07/12 03:43:04;;;;;;;7.50;6.80;;;;;;;14.23;100.00;98888.69;10539895;28;20530;-80
2021/07/12 03:48:37;;;;;;;7.43;5.70;;;;;;;14.28;100.00;98897.25;10523582;28;20170;-80
2021/07/12 03:53:56;;;;;;;20.63;7.40;;;;;;;14.36;100.00;98902.19;10522683;28;20288;-80
2021/07/12 03:59:15;;;;;;;27.57;8.63;;;;;;;14.47;100.00;98908.28;10539210;28;20181;-80
2021/07/12 04:04:35;;;;;;;86.63;10.13;;;;;;;14.57;100.00;98909.25;10538078;28;20174;-80
2021/07/12 04:09:53;;;;;;;9.30;7.83;;;;;;;14.66;100.00;98903.91;10539308;28;20186;-80
2021/07/12 04:15:15;;;;;;;89.83;9.43;;;;;;;14.75;100.00;98895.78;10522806;28;20240;-80
2021/07/12 04:20:35;;;;;;;77.33;8.90;;;;;;;14.69;100.00;98887.22;10522525;28;20166;-80
2021/07/12 04:25:54;;;;;;;72.20;8.83;;;;;;;14.86;100.00;98893.56;10523274;28;20170;-80
2021/07/12 04:31:14;;;;;;;8.37;7.00;;;;;;;14.74;100.00;98897.78;10538334;28;20186;-80
2021/07/12 04:36:32;;;;;;;25.97;8.93;;;;;;;14.83;100.00;98894.41;10521383;28;20218;-80
2021/07/12 04:41:52;;;;;;;67.70;10.00;;;;;;;14.85;100.00;98892.00;10538887;28;20182;-80
2021/07/12 04:47:11;;;;;;;9.47;8.57;;;;;;;14.92;100.00;98887.06;10538626;28;20573;-81
2021/07/12 04:52:31;;;;;;;34.47;9.10;;;;;;;15.06;100.00;98891.47;10521788;28;20209;-80
2021/07/12 04:57:51;;;;;;;9.40;8.43;;;;;;;15.16;100.00;98880.91;10516368;28;20237;-81
2021/07/12 05:03:10;;;;;;;11.20;6.67;;;;;;;15.23;100.00;98879.94;10556181;28;20189;-81
2021/07/12 05:08:29;;;;;;;8.67;5.80;;;;;;;15.35;100.00;98871.72;10529114;28;20181;-81
2021/07/12 05:13:48;;;;;;;7.77;6.97;;;;;;;15.24;100.00;98870.44;10545166;28;20202;-81
2021/07/12 05:19:07;;;;;;;6.20;5.70;;;;;;;15.26;100.00;98860.50;10530141;28;20202;-81
2021/07/12 05:24:26;;;;;;;7.80;6.90;;;;;;;15.32;100.00;98850.44;10543813;28;20575;-81
2021/07/12 05:29:45;;;;;;;9.33;8.43;;;;;;;15.40;100.00;98839.94;10529506;28;20207;-81
2021/07/12 05:35:05;;;;;;;13.53;8.87;;;;;;;15.45;100.00;98842.94;10527425;28;20226;-82
2021/07/12 05:40:24;;;;;;;9.57;8.57;;;;;;;15.61;100.00;98837.34;10544578;28;20178;-82
2021/07/12 05:45:43;;;;;;;9.70;8.73;;;;;;;15.81;100.00;98840.75;10544106;28;20660;-81
2021/07/12 05:51:02;;;;;;;18.17;12.40;;;;;;;16.01;100.00;98835.81;10526819;28;20206;-81
2021/07/12 05:56:21;;;;;;;21.10;12.60;;;;;;;16.14;100.00;98842.19;10543893;28;20190;-81
2021/07/12 06:01:40;;;;;;;16.47;12.30;;;;;;;16.17;100.00;98849.59;10528258;28;20166;-81
2021/07/12 06:06:59;;;;;;;13.60;11.73;;;;;;;16.21;100.00;98851.03;10541792;28;20178;-81
2021/07/12 06:12:18;;;;;;;16.13;12.30;;;;;;;16.26;100.00;98846.94;10542012;28;20210;-81
2021/07/12 06:17:37;;;;;;;18.53;13.43;;;;;;;16.40;100.00;98854.88;10543181;28;20178;-81
2021/07/12 06:22:57;;;;;;;17.37;13.93;;;;;;;16.52;100.00;98843.00;10540615;28;20225;-81
2021/07/12 06:28:16;;;;;;;25.93;14.80;;;;;;;16.72;100.00;98844.34;10526182;28;20189;-81
2021/07/12 06:33:35;;;;;;;18.33;13.70;;;;;;;16.69;100.00;98850.75;10541618;28;20699;-80
2021/07/12 06:38:54;;;;;;;14.23;12.77;;;;;;;16.96;100.00;98857.41;10541129;28;20198;-80
2021/07/12 06:44:13;;;;;;;13.33;11.63;;;;;;;17.22;100.00;98861.69;10526728;28;20190;-80
2021/07/12 06:49:32;;;;;;;16.50;13.80;;;;;;;17.36;100.00;98869.63;10524585;28;20277;-80
2021/07/12 06:54:51;;;;;;;19.13;13.03;;;;;;;17.63;100.00;98867.06;10539622;28;20605;-80
2021/07/12 07:00:11;;;;;;;15.20;12.60;;;;;;;17.94;100.00;98870.69;10541839;28;20182;-81
2021/07/12 07:05:30;;;;;;;12.67;11.40;;;;;;;18.09;100.00;98863.41;10525445;28;20628;-81
2021/07/12 07:10:50;;;;;;;15.07;12.50;;;;;;;18.03;100.00;98862.41;10521894;28;20191;-81
2021/07/12 07:16:09;;;;;;;16.13;11.60;;;;;;;18.22;100.00;98864.13;10524998;28;20201;-81
2021/07/12 07:21:28;;;;;;;13.50;12.10;;;;;;;18.53;100.00;98843.41;10524132;28;20178;-81
2021/07/12 07:26:47;;;;;;;15.50;12.90;;;;;;;18.42;100.00;98837.47;10499543;28;20265;-81
2021/07/12 07:32:07;;;;;;;19.30;13.10;;;;;;;18.66;100.00;98833.69;10482850;28;20285;-81
2021/07/12 07:37:26;;;;;;;16.00;13.90;;;;;;;18.82;100.00;98843.81;10496691;28;20218;-80
2021/07/12 07:42:45;;;;;;;14.50;12.90;;;;;;;19.27;100.00;98833.56;10475232;28;20273;-81
2021/07/12 07:48:05;;;;;;;13.17;11.80;;;;;;;19.83;100.00;98826.28;10499077;28;20221;-80
2021/07/12 07:53:25;;;;;;;13.10;11.83;;;;;;;20.54;100.00;98835.78;10492087;28;20218;-81
2021/07/12 07:58:44;;;;;;;11.57;10.53;;;;;;;21.58;100.00;98832.56;10482815;28;20270;-80
2021/07/12 08:04:03;;;;;;;11.77;10.53;;;;;;;22.01;100.00;98822.22;10497417;28;20625;-80
2021/07/12 08:09:22;;;;;;;11.83;10.83;;;;;;;22.07;94.57;98813.94;10480733;28;20178;-80
2021/07/12 08:14:41;;;;;;;10.40;9.30;;;;;;;22.39;96.26;98816.53;10496902;28;20206;-81
2021/07/12 08:20:00;;;;;;;9.93;8.37;;;;;;;22.68;94.41;98797.66;10495992;28;20211;-80
2021/07/12 08:25:20;;;;;;;8.63;7.93;;;;;;;22.40;90.64;98790.06;10505161;28;20640;-80
2021/07/12 08:30:38;;;;;;;9.80;9.10;;;;;;;22.10;92.78;98780.13;10481890;28;20178;-81
2021/07/12 08:35:58;;;;;;;12.00;8.40;;;;;;;22.18;93.76;98786.09;10501844;28;20222;-80
2021/07/12 08:41:17;;;;;;;9.90;6.80;;;;;;;22.29;99.70;98778.66;10489869;28;20668;-80
2021/07/12 08:46:36;;;;;;;7.10;6.60;;;;;;;23.07;93.07;98778.59;10504888;28;20172;-79
2021/07/12 08:51:55;;;;;;;7.20;6.60;;;;;;;24.22;86.12;98761.03;10489543;28;20240;-80
2021/07/12 08:57:14;;;;;;;7.40;6.73;;;;;;;25.14;79.49;98760.94;10535027;28;20182;-81
2021/07/12 09:02:36;;;;;;;6.30;5.80;;;;;;;25.67;73.35;98760.09;10530418;28;20178;-82
2021/07/12 09:07:56;;;;;;;5.87;5.47;;;;;;;26.35;68.60;98752.78;10544576;28;20182;-81
2021/07/12 09:13:15;;;;;;;5.80;5.40;;;;;;;27.02;66.57;98744.53;10530172;28;20209;-81
2021/07/12 09:18:36;;;;;;;6.70;5.60;;;;;;;27.58;66.41;98734.53;10545573;28;20190;-80
2021/07/12 09:24:13;;;;;;;5.37;5.03;;;;;;;27.30;65.82;98733.88;10524761;28;20186;-81
2021/07/12 09:29:44;;;;;;;4.80;4.40;;;;;;;27.63;62.97;98728.09;10523003;28;20182;-80
2021/07/12 09:35:09;;;;;;;4.80;4.37;;;;;;;28.40;63.18;98722.66;10543013;28;20700;-81
2021/07/12 09:40:29;;;;;;;4.77;4.47;;;;;;;28.89;60.45;98722.22;10529233;28;20170;-82
2021/07/12 09:45:49;;;;;;;5.17;4.30;;;;;;;29.05;56.39;98695.78;10520591;28;20235;-81
2021/07/12 09:51:08;;;;;;;4.10;3.90;;;;;;;29.10;56.93;98680.75;10527459;28;20190;-83
2021/07/12 09:56:27;;;;;;;6.43;3.80;;;;;;;28.35;56.54;98673.31;10526279;28;20209;-82
2021/07/12 10:01:52;;;;;;;5.00;4.37;;;;;;;28.42;59.46;98650.13;10528399;28;20170;-83
2021/07/12 10:07:11;;;;;;;4.77;4.10;;;;;;;28.40;56.39;98655.53;10527805;28;20178;-82
2021/07/12 10:12:30;;;;;;;4.37;4.07;;;;;;;28.80;55.64;98654.59;10529320;28;20197;-82
2021/07/12 10:17:49;;;;;;;3.80;3.60;;;;;;;28.74;57.29;98653.88;10540473;28;20174;-81
2021/07/12 10:23:08;;;;;;;5.60;3.50;;;;;;;29.29;53.44;98641.88;10526590;28;20173;-81
2021/07/12 10:28:43;;;;;;;4.70;4.40;;;;;;;28.50;54.39;98624.81;10526854;28;20189;-81
2021/07/12 10:34:21;;;;;;;3.97;3.70;;;;;;;28.06;55.92;98627.28;10542653;28;20201;-83
2021/07/12 10:40:04;;;;;;;4.60;4.30;;;;;;;28.79;50.56;98616.25;10527312;28;20166;-82
2021/07/12 10:45:35;;;;;;;4.97;4.67;;;;;;;29.29;51.99;98625.63;10526949;28;20178;-82
2021/07/12 10:50:55;;;;;;;4.20;3.83;;;;;;;30.22;50.48;98634.78;10526084;28;20303;-81
2021/07/12 10:56:16;;;;;;;5.40;3.50;;;;;;;29.89;47.66;98645.88;10541024;28;20296;-81
2021/07/12 11:01:40;;;;;;;4.00;3.80;;;;;;;30.58;45.27;98645.22;10542689;28;20206;-83
2021/07/12 11:07:01;;;;;;;4.17;3.53;;;;;;;31.17;47.04;98644.59;10541767;28;20178;-83
2021/07/12 11:12:31;;;;;;;4.33;4.13;;;;;;;31.64;45.20;98629.81;10526197;28;20209;-83
2021/07/12 11:18:05;;;;;;;4.07;3.63;;;;;;;31.20;47.13;98643.47;10525960;28;20656;-83
2021/07/12 11:23:50;;;;;;;4.57;4.17;;;;;;;30.76;46.68;98635.06;10524864;28;20174;-82
2021/07/12 11:29:16;;;;;;;4.33;4.03;;;;;;;31.91;44.08;98625.53;10521620;28;20628;-81
2021/07/12 11:34:45;;;;;;;4.03;3.83;;;;;;;31.17;47.24;98604.78;10523848;28;20684;-81
2021/07/12 11:40:05;;;;;;;4.07;3.77;;;;;;;31.69;44.11;98605.41;10525124;28;20190;-80
2021/07/12 11:45:25;;;;;;;3.50;3.30;;;;;;;31.74;43.75;98593.88;10524358;28;20182;-80
2021/07/12 11:50:44;;;;;;;3.93;3.60;;;;;;;31.33;43.88;98586.59;10538416;28;20571;-80
2021/07/12 11:56:03;;;;;;;4.77;3.70;;;;;;;31.82;43.76;98557.75;10523099;28;20288;-80
2021/07/12 12:01:23;;;;;;;4.33;3.60;;;;;;;32.07;43.50;98558.91;10497811;28;20210;-81
2021/07/12 12:06:42;;;;;;;3.30;3.10;;;;;;;32.31;40.59;98563.47;10505205;28;20182;-79
2021/07/12 12:12:01;;;;;;;2.50;2.40;;;;;;;31.12;38.94;98578.03;10539552;28;20194;-81
2021/07/12 12:17:21;;;;;;;2.90;2.70;;;;;;;30.70;39.53;98601.09;10538610;28;20656;-81
2021/07/12 12:23:16;;;;;;;2.70;2.60;;;;;;;29.55;43.07;98588.19;10537831;28;20209;-81
2021/07/12 12:28:48;;;;;;;2.37;2.27;;;;;;;29.21;41.74;98595.63;10474488;28;20190;-82
2021/07/12 12:34:13;;;;;;;2.47;2.30;;;;;;;29.22;43.68;98583.00;10515982;28;20206;-80
2021/07/12 12:39:32;;;;;;;4.03;2.63;;;;;;;29.35;48.56;98583.81;10538719;28;20233;-80
2021/07/12 12:44:54;;;;;;;6.43;2.80;;;;;;;29.99;44.05;98571.97;10538464;28;20586;-80
2021/07/12 12:50:15;;;;;;;2.50;2.40;;;;;;;29.98;45.24;98576.13;10536966;28;20307;-80
2021/07/12 12:55:36;;;;;;;3.07;2.77;;;;;;;30.48;43.78;98578.81;10537551;28;20676;-80
2021/07/12 13:00:55;;;;;;;2.60;2.50;;;;;;;30.58;43.04;98560.03;10509827;28;20183;-80
2021/07/12 13:06:14;;;;;;;2.40;2.30;;;;;;;31.14;41.97;98557.56;10501094;28;20186;-79
2021/07/12 13:11:34;;;;;;;2.53;2.43;;;;;;;31.82;38.46;98563.44;10519726;28;20187;-80
2021/07/12 13:17:07;;;;;;;2.47;2.37;;;;;;;32.28;38.75;98562.50;10481051;28;20186;-80
2021/07/12 13:22:30;;;;;;;2.60;2.50;;;;;;;31.80;39.28;98566.06;10513784;28;20189;-79
2021/07/12 13:27:59;;;;;;;2.77;2.67;;;;;;;32.39;37.09;98552.88;10529777;28;20209;-81
2021/07/12 13:33:19;;;;;;;2.73;2.63;;;;;;;31.66;39.35;98538.25;10544384;28;20667;-80
2021/07/12 13:38:38;;;;;;;2.60;2.50;;;;;;;33.00;39.13;98507.06;10527301;28;20221;-81
2021/07/12 13:43:56;;;;;;;2.63;2.53;;;;;;;32.35;37.95;98519.06;10511384;28;20186;-80
2021/07/12 13:49:15;;;;;;;3.73;2.40;;;;;;;31.46;39.29;98526.81;10487152;28;20253;-81
2021/07/12 13:54:35;;;;;;;2.70;2.50;;;;;;;31.09;39.18;98515.84;10501309;28;20645;-79
2021/07/12 13:59:54;;;;;;;2.23;2.10;;;;;;;31.47;40.02;98499.91;10480042;28;20171;-80
2021/07/12 14:05:15;;;;;;;2.70;2.60;;;;;;;32.27;38.91;98495.47;10485491;28;20163;-80
2021/07/12 14:10:34;;;;;;;3.60;2.43;;;;;;;32.43;37.45;98474.31;10490653;28;20186;-80
2021/07/12 14:15:53;;;;;;;2.80;2.60;;;;;;;33.13;36.91;98469.84;10527127;28;20205;-80
2021/07/12 14:21:15;;;;;;;2.50;2.40;;;;;;;33.49;35.64;98463.47;10526298;28;20174;-80
2021/07/12 14:26:35;;;;;;;2.50;2.30;;;;;;;33.00;34.77;98472.84;10527253;28;20181;-81
2021/07/12 14:31:54;;;;;;;2.57;2.37;;;;;;;32.97;37.09;98462.56;10509703;28;20186;-82
2021/07/12 14:37:13;;;;;;;2.50;2.40;;;;;;;33.50;36.49;98450.72;10525040;28;20213;-81
2021/07/12 14:42:33;;;;;;;2.97;2.43;;;;;;;33.12;36.89;98448.41;10526705;28;20170;-84
2021/07/12 14:47:52;;;;;;;2.30;2.20;;;;;;;33.42;35.30;98449.97;10541668;28;20227;-82
2021/07/12 14:53:11;;;;;;;2.30;2.20;;;;;;;33.71;33.89;98437.03;10524864;28;20630;-82
2021/07/12 14:58:32;;;;;;;2.27;2.07;;;;;;;34.05;34.11;98430.94;10540604;28;20223;-82
2021/07/12 15:03:51;;;;;;;2.33;2.17;;;;;;;33.88;34.10;98439.31;10491402;28;20182;-82
2021/07/12 15:09:11;;;;;;;2.33;2.13;;;;;;;33.37;35.71;98450.88;10483782;28;20186;-81
2021/07/12 15:14:29;;;;;;;2.23;2.13;;;;;;;33.40;35.64;98441.22;10483327;28;20284;-81
2021/07/12 15:19:48;;;;;;;2.60;2.43;;;;;;;33.64;34.56;98423.53;10497618;28;20175;-84
2021/07/12 15:25:09;;;;;;;2.10;2.00;;;;;;;33.37;34.75;98419.53;10499897;28;20189;-82
2021/07/12 15:30:28;;;;;;;2.33;2.23;;;;;;;33.90;35.03;98433.78;10483227;28;20621;-82
2021/07/12 15:35:51;;;;;;;2.90;2.70;;;;;;;33.19;37.30;98436.25;10481208;28;20685;-82
2021/07/12 15:41:10;;;;;;;2.80;2.70;;;;;;;32.97;36.64;98425.53;10497701;28;20190;-82
2021/07/12 15:46:28;;;;;;;3.20;2.20;;;;;;;32.94;35.90;98415.28;10482456;28;20202;-82
2021/07/12 15:51:47;;;;;;;2.57;2.37;;;;;;;32.14;38.00;98407.34;10508451;28;20186;-81
2021/07/12 15:57:06;;;;;;;2.57;2.37;;;;;;;32.47;38.00;98394.97;10539356;28;20178;-83
2021/07/12 16:02:26;;;;;;;3.00;2.63;;;;;;;32.40;37.16;98394.94;10539029;28;20202;-81
2021/07/12 16:07:45;;;;;;;2.60;2.40;;;;;;;32.58;37.52;98400.34;10522991;28;20178;-82
2021/07/12 16:13:04;;;;;;;2.70;2.40;;;;;;;32.70;35.90;98410.84;10538515;28;20233;-82
2021/07/12 16:18:23;;;;;;;3.33;2.50;;;;;;;32.42;37.89;98410.13;10524224;28;20173;-82
2021/07/12 16:23:43;;;;;;;2.40;2.30;;;;;;;32.51;36.92;98406.75;10523050;28;20209;-82
2021/07/12 16:29:04;;;;;;;2.60;2.30;;;;;;;32.73;36.75;98412.56;10539370;28;20177;-81
2021/07/12 16:34:23;;;;;;;2.30;2.20;;;;;;;32.48;35.60;98405.03;10521741;28;20691;-81
2021/07/12 16:39:42;;;;;;;2.80;2.60;;;;;;;32.45;37.93;98398.38;10538371;28;20222;-82
2021/07/12 16:45:03;;;;;;;4.00;2.87;;;;;;;31.72;36.59;98394.56;10523407;28;20588;-81
2021/07/12 16:50:22;;;;;;;2.50;2.40;;;;;;;31.10;39.53;98378.09;10535939;28;20186;-82
2021/07/12 16:55:42;;;;;;;2.80;2.60;;;;;;;30.38;41.30;98373.31;10526714;28;20217;-81
2021/07/12 17:01:01;;;;;;;2.37;2.27;;;;;;;30.02;42.88;98377.19;10546257;28;20186;-81
2021/07/12 17:06:20;;;;;;;4.73;2.60;;;;;;;29.92;42.79;98378.16;10529546;28;20166;-82
2021/07/12 17:11:39;;;;;;;2.40;2.30;;;;;;;29.65;44.63;98382.31;10530302;28;20209;-81
2021/07/12 17:16:58;;;;;;;2.70;2.60;;;;;;;29.38;44.96;98367.34;10545781;28;20174;-82
2021/07/12 17:22:17;;;;;;;2.90;2.70;;;;;;;29.35;44.69;98379.00;10532762;28;20182;-82
2021/07/12 17:27:37;;;;;;;2.83;2.73;;;;;;;29.33;46.06;98368.22;10545871;28;20174;-81
2021/07/12 17:32:56;;;;;;;3.20;3.00;;;;;;;29.74;45.05;98368.47;10545470;28;20213;-82
2021/07/12 17:38:16;;;;;;;2.60;2.40;;;;;;;30.09;43.92;98368.03;10528106;28;20225;-82
2021/07/12 17:43:35;;;;;;;2.87;2.67;;;;;;;29.81;44.31;98353.63;10544001;28;20903;-81
2021/07/12 17:48:54;;;;;;;3.80;2.80;;;;;;;29.06;46.75;98348.88;10553967;28;20201;-81
2021/07/12 17:54:13;;;;;;;4.20;3.03;;;;;;;28.60;48.98;98357.06;10570391;28;20280;-81
2021/07/12 17:59:32;;;;;;;2.90;2.80;;;;;;;28.15;49.52;98363.88;10587251;28;20170;-81
2021/07/12 18:04:51;;;;;;;3.10;3.00;;;;;;;27.85;50.19;98354.75;10569603;28;20181;-81
2021/07/12 18:10:11;;;;;;;2.83;2.63;;;;;;;27.66;51.49;98348.31;10570656;28;20211;-79
2021/07/12 18:15:30;;;;;;;3.07;2.97;;;;;;;27.43;53.63;98347.00;10585168;28;20208;-79
2021/07/12 18:20:50;;;;;;;3.33;2.77;;;;;;;27.18;54.89;98341.88;10542746;28;20185;-79
2021/07/12 18:26:09;;;;;;;3.20;3.00;;;;;;;26.80;56.84;98340.13;10527594;28;20190;-78
2021/07/12 18:31:28;;;;;;;6.67;3.23;;;;;;;26.40;58.35;98357.13;10528417;28;20182;-79
2021/07/12 18:36:47;;;;;;;3.23;2.93;;;;;;;25.91;58.20;98341.97;10540474;28;20234;-79
2021/07/12 18:42:06;;;;;;;3.43;3.17;;;;;;;25.67;60.21;98352.31;10527134;28;20253;-78
2021/07/12 18:47:25;;;;;;;3.60;3.40;;;;;;;25.57;62.35;98347.47;10526760;28;20202;-78
2021/07/12 18:52:45;;;;;;;3.57;3.37;;;;;;;25.32;64.83;98346.53;10540319;28;20301;-78
2021/07/12 18:58:04;;;;;;;3.63;3.33;;;;;;;25.15;64.04;98331.72;10526213;28;20181;-79
2021/07/12 19:03:23;;;;;;;4.50;3.60;;;;;;;25.01;65.96;98338.38;10526183;28;20264;-78
2021/07/12 19:08:42;;;;;;;3.87;3.57;;;;;;;24.68;67.32;98337.63;10540056;28;20235;-78
2021/07/12 19:14:03;;;;;;;3.70;3.40;;;;;;;24.54;69.38;98335.06;10541017;28;20205;-79
2021/07/12 19:19:22;;;;;;;3.93;3.73;;;;;;;24.34;71.35;98346.50;10540908;28;20170;-79
2021/07/12 19:24:42;;;;;;;5.40;4.93;;;;;;;24.15;72.63;98349.03;10525719;28;20201;-80
2021/07/12 19:30:05;;;;;;;4.00;3.80;;;;;;;23.94;72.72;98355.38;10540486;28;20169;-78
2021/07/12 19:35:27;;;;;;;4.10;3.90;;;;;;;23.74;72.98;98364.00;10538594;28;20316;-79
2021/07/12 19:40:46;;;;;;;4.03;3.73;;;;;;;23.67;74.42;98367.22;10524886;28;20178;-78
2021/07/12 19:46:08;;;;;;;3.87;3.67;;;;;;;23.38;76.47;98372.47;10524700;28;20202;-78
2021/07/12 19:51:28;;;;;;;3.43;3.23;;;;;;;23.28;76.83;98364.72;10538728;28;20628;-79
2021/07/12 19:56:47;;;;;;;3.97;3.67;;;;;;;23.20;76.55;98374.88;10539196;28;20648;-78
2021/07/12 20:02:07;;;;;;;3.20;3.00;;;;;;;23.07;77.23;98377.34;10524369;28;20535;-79
2021/07/12 20:07:26;;;;;;;4.07;3.87;;;;;;;23.00;78.02;98384.16;10523343;28;20204;-78
2021/07/12 20:12:45;;;;;;;5.57;3.97;;;;;;;22.91;78.14;98386.38;10539544;28;20684;-78
2021/07/12 20:18:04;;;;;;;3.50;3.20;;;;;;;22.69;79.30;98394.63;10524023;28;20178;-78
2021/07/12 20:23:24;;;;;;;7.90;3.57;;;;;;;22.51;81.67;98384.50;10519547;28;20182;-78
2021/07/12 20:28:43;;;;;;;4.40;3.53;;;;;;;22.38;82.58;98396.59;10541054;28;20174;-78
2021/07/12 20:34:03;;;;;;;4.40;3.77;;;;;;;22.24;83.57;98400.25;10531239;28;20201;-78
2021/07/12 20:39:22;;;;;;;5.70;4.23;;;;;;;22.15;83.81;98394.78;10546271;28;20181;-78
2021/07/12 20:44:41;;;;;;;4.17;3.90;;;;;;;22.10;84.26;98393.47;10531779;28;20190;-80
2021/07/12 20:50:03;;;;;;;3.83;3.50;;;;;;;22.01;84.46;98390.81;10530373;28;20165;-80
2021/07/12 20:55:22;;;;;;;4.10;3.90;;;;;;;21.88;85.41;98384.03;10530446;28;20197;-81
2021/07/12 21:00:42;;;;;;;4.47;4.17;;;;;;;21.84;88.15;98395.47;10546487;28;20174;-79
2021/07/12 21:06:01;;;;;;;3.63;3.43;;;;;;;21.55;88.85;98391.25;10545314;28;20800;-78
2021/07/12 21:11:21;;;;;;;4.70;4.40;;;;;;;21.49;89.18;98393.16;10530640;28;20174;-79
2021/07/12 21:16:40;;;;;;;5.50;4.33;;;;;;;21.49;88.50;98391.16;10545409;28;20202;-79
2021/07/12 21:21:59;;;;;;;4.00;3.80;;;;;;;21.42;91.78;98385.19;10544040;28;20182;-77
2021/07/12 21:27:19;;;;;;;4.57;4.27;;;;;;;21.25;92.61;98386.97;10530476;28;20272;-80
2021/07/12 21:32:40;;;;;;;4.60;4.30;;;;;;;21.19;92.81;98388.94;10545152;28;20244;-79
2021/07/12 21:38:00;;;;;;;4.00;3.60;;;;;;;21.13;93.05;98382.50;10527692;28;20680;-80
2021/07/12 21:43:19;;;;;;;4.97;4.50;;;;;;;21.12;92.33;98372.56;10544267;28;20542;-79
2021/07/12 21:48:39;;;;;;;6.90;4.87;;;;;;;21.07;94.15;98376.06;10529125;28;20174;-78
2021/07/12 21:53:57;;;;;;;4.70;4.40;;;;;;;21.02;94.60;98385.09;10527621;28;20213;-78
2021/07/12 21:59:17;;;;;;;4.80;4.40;;;;;;;21.03;95.38;98400.63;10544211;28;20261;-80
2021/07/12 22:04:36;;;;;;;4.30;4.10;;;;;;;20.90;95.53;98400.19;10542946;28;20581;-78
2021/07/12 22:09:55;;;;;;;4.57;4.30;;;;;;;20.90;96.03;98394.59;10528472;28;20253;-77
2021/07/12 22:15:14;;;;;;;4.67;4.27;;;;;;;20.90;95.68;98391.81;10543306;28;20656;-78
2021/07/12 22:20:35;;;;;;;4.70;4.40;;;;;;;20.94;95.03;98411.94;10526434;28;20186;-78
2021/07/12 22:25:54;;;;;;;5.00;4.60;;;;;;;20.92;95.83;98409.63;10543148;28;20170;-78
2021/07/12 22:31:13;;;;;;;5.13;4.70;;;;;;;20.84;97.09;98402.09;10527474;28;20559;-79
2021/07/12 22:36:32;;;;;;;5.03;4.73;;;;;;;20.75;100.00;98407.78;10525346;28;20222;-78
2021/07/12 22:41:51;;;;;;;5.20;4.70;;;;;;;20.70;100.00;98386.09;10542460;28;20212;-79
2021/07/12 22:47:12;;;;;;;4.90;4.67;;;;;;;20.69;100.00;98386.59;10542142;28;20177;-81
2021/07/12 22:52:31;;;;;;;5.07;4.60;;;;;;;20.62;100.00;98395.38;10540000;28;20217;-79
2021/07/12 22:57:50;;;;;;;5.80;5.30;;;;;;;20.58;100.00;98394.78;10541029;28;20182;-78
2021/07/12 23:03:09;;;;;;;6.40;6.00;;;;;;;20.53;100.00;98375.91;10526135;28;20169;-79
2021/07/12 23:08:29;;;;;;;5.20;5.00;;;;;;;20.37;100.00;98354.78;10539856;28;20170;-79
2021/07/12 23:13:49;;;;;;;8.03;5.53;;;;;;;20.17;100.00;98351.13;10540779;28;20198;-79
2021/07/12 23:19:08;;;;;;;8.57;5.20;;;;;;;20.00;100.00;98338.13;10540377;28;20182;-77
2021/07/12 23:24:27;;;;;;;5.70;5.30;;;;;;;19.96;100.00;98326.34;10524404;28;20632;-78
2021/07/12 23:29:46;;;;;;;5.70;5.40;;;;;;;19.89;100.00;98335.84;10525455;28;20186;-78
2021/07/12 23:35:07;;;;;;;5.93;5.63;;;;;;;19.77;100.00;98331.28;10538271;28;20226;-77
2021/07/12 23:40:33;;;;;;;5.27;4.97;;;;;;;19.71;100.00;98318.47;10540342;28;20531;-79
2021/07/12 23:45:52;;;;;;;6.03;5.63;;;;;;;19.65;100.00;98318.41;10539891;28;20206;-77
2021/07/12 23:51:11;;;;;;;5.80;5.30;;;;;;;19.58;100.00;98312.41;10522398;28;20572;-80
2021/07/12 23:56:30;;;;;;;5.63;5.13;;;;;;;19.55;100.00;98307.75;10539154;28;20718;-80
